Time;durP1;ratioP1;P1;durP2;ratioP2;P2;SDS_P1;SDS_P2;PMS_P1;PMS_P2;Temp;Humidity;BMP_temperature;BMP_pressure;BME280_temperature;BME280_humidity;BME280_pressure;Samples;Min_cycle;Max_cycle;Signal;HPM_P1;HPM_P2
2022/07/14 00:02:19;;;;;;;2.20;1.53;;;;;;;;;;5008929;28;20195;-74
2022/07/14 00:04:45;;;;;;;3.00;1.50;;;;;;;;;;5008577;28;20187;-74
2022/07/14 00:07:11;;;;;;;4.10;1.87;;;;;;;;;;5007293;28;20226;-74
2022/07/14 00:09:37;;;;;;;2.50;1.40;;;;;;;;;;5008813;28;20285;-74
2022/07/14 00:12:04;;;;;;;2.47;1.70;;;;;;;;;;5009220;28;20190;-74
2022/07/14 00:14:30;;;;;;;1.60;1.50;;;;;;;;;;4996183;28;20177;-74
2022/07/14 00:16:56;;;;;;;3.13;1.83;;;;;;;;;;5010767;28;20211;-74
2022/07/14 00:19:22;;;;;;;3.83;1.73;;;;;;;;;;4991027;28;20214;-74
2022/07/14 00:21:49;;;;;;;2.63;1.80;;;;;;;;;;5005907;28;20187;-73
2022/07/14 00:24:15;;;;;;;3.27;1.70;;;;;;;;;;4995301;28;20222;-74
2022/07/14 00:26:41;;;;;;;3.97;1.67;;;;;;;;;;4992779;28;20294;-74
2022/07/14 00:29:07;;;;;;;1.73;1.50;;;;;;;;;;5005629;28;20248;-74
2022/07/14 00:31:34;;;;;;;2.13;1.47;;;;;;;;;;5009849;28;20262;-74
2022/07/14 00:34:01;;;;;;;1.77;1.50;;;;;;;;;;4997134;28;20191;-74
2022/07/14 00:36:28;;;;;;;1.73;1.33;;;;;;;;;;5008701;28;20201;-74
2022/07/14 00:38:54;;;;;;;2.77;1.40;;;;;;;;;;4992771;28;20191;-74
2022/07/14 00:41:21;;;;;;;2.67;1.53;;;;;;;;;;4993326;28;20187;-74
2022/07/14 00:43:47;;;;;;;3.83;1.53;;;;;;;;;;5007636;28;20190;-74
2022/07/14 00:46:13;;;;;;;3.83;1.60;;;;;;;;;;4978557;28;20222;-74
2022/07/14 00:48:40;;;;;;;2.80;1.57;;;;;;;;;;5013414;28;20608;-73
2022/07/14 00:51:06;;;;;;;3.53;1.70;;;;;;;;;;4990049;28;20197;-74
2022/07/14 00:53:32;;;;;;;2.10;1.77;;;;;;;;;;5006292;28;20187;-74
2022/07/14 00:55:58;;;;;;;2.27;1.80;;;;;;;;;;4975722;28;20212;-74
2022/07/14 00:58:24;;;;;;;2.03;1.77;;;;;;;;;;5006809;28;20270;-74
2022/07/14 01:00:51;;;;;;;2.17;1.80;;;;;;;;;;4994857;28;20272;-74
2022/07/14 01:03:17;;;;;;;3.23;1.80;;;;;;;;;;4994931;28;20195;-74
2022/07/14 01:05:43;;;;;;;2.23;1.67;;;;;;;;;;5011461;28;20294;-77
2022/07/14 01:08:09;;;;;;;1.90;1.70;;;;;;;;;;5009906;28;20550;-74
2022/07/14 01:10:36;;;;;;;2.60;2.00;;;;;;;;;;4999045;28;20328;-74
2022/07/14 01:13:06;;;;;;;3.30;2.10;;;;;;;;;;5012893;28;20879;-74
2022/07/14 01:15:32;;;;;;;2.27;1.90;;;;;;;;;;5006487;28;20179;-74
2022/07/14 01:17:59;;;;;;;4.63;2.10;;;;;;;;;;5002039;28;20240;-74
2022/07/14 01:20:25;;;;;;;2.50;1.67;;;;;;;;;;4995173;28;20187;-73
2022/07/14 01:22:52;;;;;;;2.40;1.93;;;;;;;;;;4996113;28;20190;-74
2022/07/14 01:25:19;;;;;;;2.00;1.60;;;;;;;;;;5000461;28;20194;-74
2022/07/14 01:27:45;;;;;;;2.60;1.80;;;;;;;;;;5010482;28;20202;-73
2022/07/14 01:30:12;;;;;;;4.33;1.90;;;;;;;;;;4981437;28;20215;-74
2022/07/14 01:32:38;;;;;;;2.47;1.80;;;;;;;;;;4978698;28;20175;-74
2022/07/14 01:35:05;;;;;;;2.23;1.70;;;;;;;;;;5012352;28;20202;-74
2022/07/14 01:37:31;;;;;;;6.43;1.70;;;;;;;;;;5003617;28;20273;-74
2022/07/14 01:39:57;;;;;;;4.33;1.77;;;;;;;;;;5006465;28;20210;-73
2022/07/14 01:42:26;;;;;;;3.00;2.17;;;;;;;;;;5010537;28;20266;-74
2022/07/14 01:44:53;;;;;;;2.43;1.80;;;;;;;;;;5007347;28;20194;-74
2022/07/14 01:47:19;;;;;;;2.27;2.00;;;;;;;;;;5009115;28;20643;-74
2022/07/14 01:49:45;;;;;;;2.07;1.80;;;;;;;;;;5013406;28;20206;-74
2022/07/14 01:52:11;;;;;;;3.90;2.00;;;;;;;;;;5012362;28;20171;-73
2022/07/14 01:54:39;;;;;;;3.30;1.83;;;;;;;;;;5002061;28;20667;-73
2022/07/14 01:57:08;;;;;;;4.17;1.90;;;;;;;;;;4993931;28;20728;-74
2022/07/14 01:59:34;;;;;;;2.13;1.93;;;;;;;;;;4996536;28;20178;-73
2022/07/14 02:02:02;;;;;;;2.27;1.90;;;;;;;;;;4995335;28;20202;-74
2022/07/14 02:04:28;;;;;;;3.23;1.90;;;;;;;;;;4994322;28;20237;-73
2022/07/14 02:06:55;;;;;;;2.63;1.90;;;;;;;;;;4993017;28;20213;-74
2022/07/14 02:12:45;;;;;;;2.67;1.80;;;;;;;;;;5007887;28;20195;-73
2022/07/14 02:15:12;;;;;;;2.00;1.90;;;;;;;;;;4997954;28;20185;-74
2022/07/14 02:17:38;;;;;;;2.87;2.17;;;;;;;;;;5010641;28;20206;-74
2022/07/14 02:20:05;;;;;;;2.80;2.00;;;;;;;;;;4975132;28;20219;-73
2022/07/14 02:22:31;;;;;;;5.50;1.87;;;;;;;;;;4979003;28;20561;-74
2022/07/14 02:24:58;;;;;;;2.80;2.00;;;;;;;;;;4995907;28;20191;-74
2022/07/14 02:27:24;;;;;;;2.90;1.90;;;;;;;;;;4992503;28;20218;-74
2022/07/14 02:29:53;;;;;;;2.23;2.03;;;;;;;;;;4995839;28;20270;-73
2022/07/14 02:32:19;;;;;;;2.20;2.00;;;;;;;;;;5013368;28;20203;-74
2022/07/14 02:34:47;;;;;;;3.00;1.83;;;;;;;;;;5008077;28;20198;-73
2022/07/14 02:37:14;;;;;;;3.30;1.93;;;;;;;;;;4994219;28;20210;-74
2022/07/14 02:39:40;;;;;;;3.63;2.10;;;;;;;;;;5008045;28;20209;-74
2022/07/14 02:42:06;;;;;;;5.43;2.17;;;;;;;;;;4997498;28;20250;-74
2022/07/14 02:44:34;;;;;;;3.87;2.10;;;;;;;;;;5008018;28;20187;-74
2022/07/14 02:47:00;;;;;;;3.53;2.23;;;;;;;;;;4991617;28;20224;-74
2022/07/14 02:49:27;;;;;;;2.83;2.10;;;;;;;;;;5006904;28;20237;-73
2022/07/14 02:51:53;;;;;;;3.90;2.20;;;;;;;;;;4991308;28;20190;-74
2022/07/14 02:54:19;;;;;;;3.20;2.40;;;;;;;;;;4977158;28;20187;-74
2022/07/14 02:56:47;;;;;;;2.60;2.40;;;;;;;;;;4993203;28;20260;-74
2022/07/14 02:59:13;;;;;;;4.60;2.60;;;;;;;;;;4978707;28;20191;-74
2022/07/14 03:01:43;;;;;;;3.70;2.10;;;;;;;;;;4995775;28;20193;-73
2022/07/14 03:04:15;;;;;;;2.87;2.40;;;;;;;;;;5014046;28;20187;-73
2022/07/14 03:06:41;;;;;;;2.47;2.00;;;;;;;;;;4997094;28;20218;-73
2022/07/14 03:09:09;;;;;;;2.87;2.30;;;;;;;;;;4999643;28;20460;-73
2022/07/14 03:11:36;;;;;;;2.13;1.90;;;;;;;;;;4987380;28;20191;-73
2022/07/14 03:14:02;;;;;;;3.03;2.20;;;;;;;;;;4990638;28;20207;-72
2022/07/14 03:16:30;;;;;;;2.40;2.20;;;;;;;;;;4996314;28;20710;-73
2022/07/14 03:19:02;;;;;;;5.77;2.00;;;;;;;;;;4991869;28;20242;-73
2022/07/14 03:21:29;;;;;;;4.40;2.33;;;;;;;;;;4993187;28;20199;-73
2022/07/14 03:23:56;;;;;;;3.00;2.30;;;;;;;;;;4993116;28;20186;-73
2022/07/14 03:26:28;;;;;;;2.50;2.30;;;;;;;;;;4986708;28;20203;-73
2022/07/14 03:28:54;;;;;;;2.50;2.20;;;;;;;;;;4976683;28;20194;-73
2022/07/14 03:31:21;;;;;;;2.87;2.23;;;;;;;;;;5005887;28;20455;-73
2022/07/14 03:33:48;;;;;;;4.83;2.47;;;;;;;;;;5005405;28;20317;-73
2022/07/14 03:36:16;;;;;;;5.40;2.80;;;;;;;;;;4991616;28;20733;-73
2022/07/14 03:38:43;;;;;;;4.93;2.50;;;;;;;;;;4993887;28;20682;-72
2022/07/14 03:41:11;;;;;;;6.57;2.40;;;;;;;;;;4989903;28;20388;-73
2022/07/14 03:43:38;;;;;;;3.07;2.40;;;;;;;;;;4990963;28;20179;-73
2022/07/14 03:46:06;;;;;;;4.00;2.70;;;;;;;;;;5010531;28;20205;-73
2022/07/14 03:48:34;;;;;;;2.60;2.40;;;;;;;;;;4991863;28;20211;-73
2022/07/14 03:51:03;;;;;;;3.67;2.43;;;;;;;;;;4982389;28;20219;-73
2022/07/14 03:53:30;;;;;;;3.93;2.50;;;;;;;;;;5002503;28;20190;-73
2022/07/14 03:55:58;;;;;;;3.50;2.60;;;;;;;;;;4991870;28;20218;-73
2022/07/14 03:58:25;;;;;;;3.77;2.40;;;;;;;;;;5002946;28;20686;-73
2022/07/14 04:00:52;;;;;;;3.70;2.30;;;;;;;;;;4980689;28;20564;-73
2022/07/14 04:03:18;;;;;;;3.17;2.70;;;;;;;;;;5008775;28;20253;-73
2022/07/14 04:05:45;;;;;;;2.83;2.50;;;;;;;;;;5011682;28;20218;-73
2022/07/14 04:08:14;;;;;;;5.20;2.40;;;;;;;;;;5005392;28;20269;-73
2022/07/14 04:10:47;;;;;;;2.73;2.40;;;;;;;;;;4989207;28;20199;-73
2022/07/14 04:13:15;;;;;;;4.10;2.50;;;;;;;;;;4991149;28;20674;-73
2022/07/14 04:15:42;;;;;;;4.23;2.40;;;;;;;;;;4987671;28;20215;-73
2022/07/14 04:18:08;;;;;;;2.20;2.00;;;;;;;;;;4994019;28;20275;-73
2022/07/14 04:20:36;;;;;;;3.77;2.50;;;;;;;;;;4991175;28;20215;-73
2022/07/14 04:23:03;;;;;;;3.80;2.80;;;;;;;;;;4989935;28;20249;-73
2022/07/14 04:25:29;;;;;;;2.87;2.67;;;;;;;;;;4998922;28;20187;-73
2022/07/14 04:27:56;;;;;;;3.20;2.10;;;;;;;;;;4994526;28;21586;-73
2022/07/14 04:30:22;;;;;;;2.83;2.07;;;;;;;;;;4999596;28;20211;-73
2022/07/14 04:32:48;;;;;;;3.60;2.80;;;;;;;;;;4997084;28;20180;-73
2022/07/14 04:35:17;;;;;;;3.60;2.60;;;;;;;;;;4981226;28;20196;-72
2022/07/14 04:37:44;;;;;;;5.47;2.70;;;;;;;;;;4993583;28;20229;-73
2022/07/14 04:40:20;;;;;;;4.07;2.70;;;;;;;;;;4994939;28;20277;-74
2022/07/14 04:42:47;;;;;;;5.60;2.90;;;;;;;;;;4998500;28;20183;-73
2022/07/14 04:45:13;;;;;;;3.00;2.73;;;;;;;;;;5013312;28;20260;-73
2022/07/14 04:47:40;;;;;;;4.67;2.80;;;;;;;;;;4997098;28;20211;-72
2022/07/14 04:52:53;;;;;;;4.67;3.40;;;;;;;;;;4996538;28;20233;-73
2022/07/14 04:55:37;;;;;;;5.13;3.50;;;;;;;;;;5010732;28;20203;-73
2022/07/14 04:58:10;;;;;;;4.93;3.20;;;;;;;;;;5001473;28;20179;-73
2022/07/14 05:00:37;;;;;;;4.00;3.00;;;;;;;;;;5010532;28;20194;-73
2022/07/14 05:03:04;;;;;;;5.40;3.30;;;;;;;;;;5004687;28;20569;-73
2022/07/14 05:05:30;;;;;;;3.37;2.80;;;;;;;;;;4992331;28;20860;-73
2022/07/14 05:07:56;;;;;;;3.73;3.20;;;;;;;;;;5008123;28;20610;-74
2022/07/14 05:10:28;;;;;;;4.37;2.90;;;;;;;;;;5007446;28;20245;-73
2022/07/14 05:12:54;;;;;;;4.70;3.00;;;;;;;;;;5008343;28;20190;-73
2022/07/14 05:15:20;;;;;;;8.10;3.20;;;;;;;;;;4992564;28;20203;-73
2022/07/14 05:17:48;;;;;;;4.90;3.40;;;;;;;;;;5011452;28;20183;-73
2022/07/14 05:20:15;;;;;;;4.43;3.00;;;;;;;;;;4995176;28;20264;-73
2022/07/14 05:22:43;;;;;;;5.60;2.90;;;;;;;;;;4992467;28;20678;-73
2022/07/14 05:25:13;;;;;;;6.00;3.00;;;;;;;;;;4989868;28;20270;-73
2022/07/14 05:27:39;;;;;;;4.97;3.20;;;;;;;;;;4991614;28;20208;-73
2022/07/14 05:30:10;;;;;;;5.90;3.53;;;;;;;;;;4992521;28;20273;-73
2022/07/14 05:32:37;;;;;;;6.07;3.30;;;;;;;;;;5011015;28;20683;-73
2022/07/14 05:35:05;;;;;;;4.80;3.20;;;;;;;;;;4974789;28;20547;-73
2022/07/14 05:37:32;;;;;;;6.80;3.00;;;;;;;;;;4990151;28;20207;-73
2022/07/14 05:40:00;;;;;;;4.27;3.20;;;;;;;;;;4996077;28;20685;-73
2022/07/14 05:42:27;;;;;;;5.77;3.00;;;;;;;;;;5008206;28;20183;-73
2022/07/14 05:44:53;;;;;;;3.87;2.40;;;;;;;;;;4990465;28;20850;-73
2022/07/14 05:47:19;;;;;;;2.97;2.70;;;;;;;;;;4978375;28;20214;-73
2022/07/14 05:49:45;;;;;;;3.90;2.53;;;;;;;;;;5009379;28;20708;-73
2022/07/14 05:52:12;;;;;;;6.10;2.77;;;;;;;;;;5000164;28;20198;-73
2022/07/14 05:54:39;;;;;;;3.23;2.53;;;;;;;;;;4991033;28;20183;-75
2022/07/14 05:57:09;;;;;;;4.93;2.73;;;;;;;;;;4992742;28;20686;-72
2022/07/14 05:59:35;;;;;;;5.27;2.90;;;;;;;;;;4987404;28;20310;-71
2022/07/14 06:02:02;;;;;;;8.63;3.23;;;;;;;;;;4997955;28;20214;-72
2022/07/14 06:04:28;;;;;;;6.07;3.33;;;;;;;;;;4978198;28;20210;-71
2022/07/14 06:06:55;;;;;;;4.30;3.10;;;;;;;;;;4967100;28;20242;-72
2022/07/14 06:09:21;;;;;;;6.47;2.90;;;;;;;;;;5008415;28;20249;-72
2022/07/14 06:11:48;;;;;;;4.50;2.67;;;;;;;;;;4968722;28;20195;-72
2022/07/14 06:14:15;;;;;;;6.23;2.60;;;;;;;;;;4994765;28;20191;-72
2022/07/14 06:16:42;;;;;;;7.83;2.70;;;;;;;;;;5005013;28;20218;-73
2022/07/14 06:19:08;;;;;;;3.63;2.70;;;;;;;;;;4999750;28;20227;-73
2022/07/14 06:21:35;;;;;;;5.70;2.90;;;;;;;;;;5014495;28;20192;-73
2022/07/14 06:24:02;;;;;;;6.33;2.90;;;;;;;;;;4996904;28;20273;-73
2022/07/14 06:26:28;;;;;;;3.60;2.63;;;;;;;;;;5004500;28;20209;-73
2022/07/14 06:28:55;;;;;;;5.40;2.90;;;;;;;;;;5007294;28;20191;-73
2022/07/14 06:31:21;;;;;;;2.80;2.60;;;;;;;;;;5007247;28;20188;-73
2022/07/14 06:33:47;;;;;;;3.63;2.53;;;;;;;;;;5009938;28;20182;-73
2022/07/14 06:36:49;;;;;;;3.20;2.40;;;;;;;;;;4928392;29;20205;-74
2022/07/14 06:39:16;;;;;;;5.30;2.57;;;;;;;;;;4973390;28;20203;-74
2022/07/14 06:41:42;;;;;;;4.47;2.70;;;;;;;;;;4971775;28;20193;-74
2022/07/14 06:44:13;;;;;;;5.30;2.40;;;;;;;;;;4977160;28;20187;-73
2022/07/14 06:46:43;;;;;;;3.57;2.53;;;;;;;;;;4982773;28;20198;-73
2022/07/14 06:49:10;;;;;;;5.47;2.57;;;;;;;;;;4996277;28;20199;-72
2022/07/14 06:51:36;;;;;;;4.97;2.53;;;;;;;;;;4997113;28;20182;-73
2022/07/14 06:54:03;;;;;;;6.83;2.60;;;;;;;;;;4992592;28;20179;-73
2022/07/14 06:56:29;;;;;;;6.00;2.67;;;;;;;;;;5005663;28;20252;-73
2022/07/14 06:58:55;;;;;;;6.10;2.70;;;;;;;;;;5008654;28;20180;-73
2022/07/14 07:01:21;;;;;;;6.27;2.70;;;;;;;;;;5008925;28;20619;-73
2022/07/14 07:03:47;;;;;;;8.37;2.67;;;;;;;;;;5003768;28;20568;-75
2022/07/14 07:08:58;;;;;;;4.10;2.77;;;;;;;;;;5007829;28;20229;-74
2022/07/14 07:11:25;;;;;;;4.33;2.67;;;;;;;;;;5004106;28;20182;-73
2022/07/14 07:13:51;;;;;;;5.40;2.77;;;;;;;;;;5001805;28;20650;-73
2022/07/14 07:16:17;;;;;;;9.77;3.10;;;;;;;;;;5002722;28;20298;-72
2022/07/14 07:18:44;;;;;;;3.57;2.77;;;;;;;;;;4985927;28;20210;-73
2022/07/14 07:21:18;;;;;;;4.43;2.60;;;;;;;;;;4969575;28;20199;-72
2022/07/14 07:23:46;;;;;;;4.73;2.80;;;;;;;;;;4997937;28;20734;-72
2022/07/14 07:26:13;;;;;;;5.43;3.00;;;;;;;;;;5002264;28;20242;-73
2022/07/14 07:28:39;;;;;;;7.53;3.13;;;;;;;;;;4999785;28;20221;-74
2022/07/14 07:31:05;;;;;;;3.20;2.63;;;;;;;;;;4983869;28;20219;-73
2022/07/14 07:33:32;;;;;;;8.43;3.30;;;;;;;;;;4986618;28;20194;-73
2022/07/14 07:35:59;;;;;;;7.03;3.10;;;;;;;;;;5000916;28;20246;-73
2022/07/14 07:38:26;;;;;;;5.40;3.13;;;;;;;;;;4996680;28;20237;-73
2022/07/14 07:40:53;;;;;;;5.20;3.20;;;;;;;;;;4985857;28;20262;-75
2022/07/14 07:43:22;;;;;;;4.57;3.53;;;;;;;;;;4999414;28;20710;-74
2022/07/14 07:45:49;;;;;;;7.67;2.97;;;;;;;;;;4998843;28;20199;-74
2022/07/14 07:48:16;;;;;;;4.07;2.80;;;;;;;;;;4999399;28;20202;-74
2022/07/14 07:50:43;;;;;;;4.67;2.87;;;;;;;;;;4985466;28;20215;-73
2022/07/14 07:53:09;;;;;;;7.20;3.33;;;;;;;;;;5004202;28;20201;-73
2022/07/14 07:55:36;;;;;;;4.87;3.03;;;;;;;;;;5005830;28;20214;-73
2022/07/14 07:58:02;;;;;;;5.13;3.27;;;;;;;;;;4989002;28;20202;-74
2022/07/14 08:00:30;;;;;;;5.30;2.87;;;;;;;;;;5005880;28;20237;-74
2022/07/14 08:02:57;;;;;;;4.57;2.93;;;;;;;;;;4972858;28;20296;-73
2022/07/14 08:05:25;;;;;;;5.50;2.90;;;;;;;;;;4990847;28;20186;-73
2022/07/14 08:07:51;;;;;;;4.67;2.80;;;;;;;;;;5005248;28;20195;-73
2022/07/14 08:10:18;;;;;;;5.47;3.20;;;;;;;;;;4989278;28;20223;-73
2022/07/14 08:12:44;;;;;;;4.97;3.17;;;;;;;;;;5004804;28;20186;-73
2022/07/14 08:15:11;;;;;;;5.07;3.27;;;;;;;;;;5005893;28;20191;-73
2022/07/14 08:17:38;;;;;;;5.70;3.60;;;;;;;;;;5003513;28;20598;-73
2022/07/14 08:20:05;;;;;;;8.10;3.70;;;;;;;;;;4999136;28;20185;-73
2022/07/14 08:22:33;;;;;;;7.33;3.77;;;;;;;;;;5004011;28;20210;-73
2022/07/14 08:24:59;;;;;;;5.17;4.07;;;;;;;;;;4986891;28;20257;-73
2022/07/14 08:27:28;;;;;;;5.20;3.93;;;;;;;;;;5004576;28;20219;-73
2022/07/14 08:29:55;;;;;;;8.50;4.47;;;;;;;;;;4989914;28;20219;-73
2022/07/14 08:32:54;;;;;;;7.10;4.50;;;;;;;;;;5003885;28;20195;-73
2022/07/14 08:35:23;;;;;;;8.13;4.30;;;;;;;;;;4948909;28;21889;-73
2022/07/14 08:37:49;;;;;;;8.13;4.47;;;;;;;;;;5002870;28;20186;-73
2022/07/14 08:40:16;;;;;;;11.67;4.60;;;;;;;;;;5007400;28;20284;-73
2022/07/14 08:42:44;;;;;;;6.10;4.50;;;;;;;;;;5002988;28;20186;-73
2022/07/14 08:45:12;;;;;;;5.90;3.77;;;;;;;;;;5004991;28;20591;-73
2022/07/14 08:47:38;;;;;;;8.63;3.90;;;;;;;;;;5004035;28;20241;-73
2022/07/14 08:50:06;;;;;;;6.23;3.83;;;;;;;;;;5003052;28;20209;-73
2022/07/14 08:52:32;;;;;;;6.97;4.10;;;;;;;;;;5007538;28;21194;-73
2022/07/14 08:54:59;;;;;;;4.57;3.50;;;;;;;;;;4991975;28;20651;-73
2022/07/14 08:57:25;;;;;;;6.20;3.50;;;;;;;;;;5006575;28;20191;-73
2022/07/14 08:59:51;;;;;;;5.80;3.60;;;;;;;;;;5001847;28;20236;-73
2022/07/14 09:02:17;;;;;;;7.77;4.40;;;;;;;;;;5003170;28;20194;-73
2022/07/14 09:04:45;;;;;;;8.03;4.27;;;;;;;;;;4990777;28;20211;-73
2022/07/14 09:07:12;;;;;;;10.07;4.07;;;;;;;;;;5006864;28;20210;-73
2022/07/14 09:09:38;;;;;;;5.03;3.30;;;;;;;;;;5005786;28;20304;-73
2022/07/14 09:12:06;;;;;;;6.33;3.80;;;;;;;;;;5004073;28;20179;-73
2022/07/14 09:17:20;;;;;;;5.57;3.80;;;;;;;;;;5000411;28;20221;-73
2022/07/14 09:20:03;;;;;;;4.87;3.17;;;;;;;;;;5003805;28;20194;-74
2022/07/14 09:22:32;;;;;;;8.17;3.60;;;;;;;;;;5003908;28;20186;-74
2022/07/14 09:24:58;;;;;;;4.73;3.60;;;;;;;;;;4994543;28;20310;-74
2022/07/14 09:27:26;;;;;;;5.20;3.60;;;;;;;;;;5002403;28;20258;-74
2022/07/14 09:29:56;;;;;;;3.87;3.40;;;;;;;;;;5006900;28;20984;-75
2022/07/14 09:32:41;;;;;;;4.30;3.50;;;;;;;;;;4973047;28;20274;-73
2022/07/14 09:35:07;;;;;;;4.67;3.50;;;;;;;;;;5003401;28;20237;-74
2022/07/14 09:37:33;;;;;;;4.03;3.60;;;;;;;;;;5002914;28;20199;-74
2022/07/14 09:40:00;;;;;;;4.93;3.87;;;;;;;;;;5000635;28;20615;-74
2022/07/14 09:42:45;;;;;;;4.97;3.70;;;;;;;;;;4985059;28;20193;-74
2022/07/14 09:45:14;;;;;;;4.27;3.70;;;;;;;;;;5004725;28;20191;-73
2022/07/14 09:47:53;;;;;;;4.80;3.30;;;;;;;;;;5003012;28;20215;-74
2022/07/14 09:50:32;;;;;;;3.97;3.20;;;;;;;;;;4987338;28;20573;-74
2022/07/14 09:52:58;;;;;;;3.60;2.70;;;;;;;;;;5001465;28;21103;-74
2022/07/14 09:55:24;;;;;;;4.17;3.10;;;;;;;;;;5003333;28;20270;-74
2022/07/14 09:57:52;;;;;;;3.97;3.30;;;;;;;;;;5000680;28;20198;-74
2022/07/14 10:00:19;;;;;;;4.40;3.27;;;;;;;;;;4991923;28;20192;-74
2022/07/14 10:02:52;;;;;;;3.70;2.90;;;;;;;;;;4999267;28;20413;-74
2022/07/14 10:05:18;;;;;;;4.77;3.20;;;;;;;;;;5001357;28;20273;-74
2022/07/14 10:07:44;;;;;;;6.43;3.30;;;;;;;;;;5001504;28;20187;-74
2022/07/14 10:10:12;;;;;;;6.63;3.03;;;;;;;;;;4989108;28;20216;-74
2022/07/14 10:12:39;;;;;;;5.40;3.13;;;;;;;;;;4985861;28;20751;-74
2022/07/14 10:15:10;;;;;;;5.47;3.07;;;;;;;;;;4986637;28;20190;-73
2022/07/14 10:17:39;;;;;;;5.03;3.50;;;;;;;;;;5000743;28;20580;-74
2022/07/14 10:20:06;;;;;;;5.90;2.93;;;;;;;;;;4998885;28;20214;-74
2022/07/14 10:22:34;;;;;;;3.83;3.30;;;;;;;;;;5000958;28;20192;-74
2022/07/14 10:25:02;;;;;;;4.03;3.40;;;;;;;;;;5000106;28;20873;-74
2022/07/14 10:27:29;;;;;;;7.70;3.17;;;;;;;;;;5002548;28;20883;-73
2022/07/14 10:29:57;;;;;;;5.13;3.47;;;;;;;;;;4983135;28;20222;-74
2022/07/14 10:32:35;;;;;;;7.30;3.60;;;;;;;;;;4997782;28;20183;-74
2022/07/14 10:35:20;;;;;;;4.37;3.20;;;;;;;;;;5000273;28;20261;-76
2022/07/14 10:38:01;;;;;;;4.13;3.17;;;;;;;;;;4999645;28;20243;-72
2022/07/14 10:40:40;;;;;;;4.93;2.97;;;;;;;;;;4998525;28;20199;-74
2022/07/14 10:43:07;;;;;;;5.00;3.00;;;;;;;;;;5004056;28;20277;-74
2022/07/14 10:45:34;;;;;;;6.67;3.00;;;;;;;;;;4996834;28;20217;-75
2022/07/14 10:48:00;;;;;;;4.07;2.90;;;;;;;;;;4998814;28;20194;-71
2022/07/14 10:50:27;;;;;;;4.27;3.00;;;;;;;;;;5001384;28;20305;-75
2022/07/14 10:53:06;;;;;;;5.90;3.20;;;;;;;;;;5000365;28;20263;-74
2022/07/14 10:55:34;;;;;;;8.33;3.33;;;;;;;;;;4999961;28;20187;-75
2022/07/14 10:58:01;;;;;;;4.60;3.20;;;;;;;;;;4983660;28;20635;-77
2022/07/14 11:00:58;;;;;;;3.30;2.87;;;;;;;;;;5004039;28;20187;-77
2022/07/14 11:03:25;;;;;;;4.93;3.10;;;;;;;;;;4990334;28;20201;-76
2022/07/14 11:06:01;;;;;;;3.33;2.90;;;;;;;;;;5007062;28;20211;-76
2022/07/14 11:08:28;;;;;;;5.00;2.83;;;;;;;;;;5001669;28;20183;-78
2022/07/14 11:10:55;;;;;;;4.20;3.10;;;;;;;;;;5000814;28;20349;-76
2022/07/14 11:13:26;;;;;;;3.53;3.10;;;;;;;;;;4999526;28;20190;-76
2022/07/14 11:15:59;;;;;;;3.20;2.90;;;;;;;;;;4996864;28;20262;-75
2022/07/14 11:18:42;;;;;;;4.67;3.00;;;;;;;;;;5000586;28;20302;-75
2022/07/14 11:21:20;;;;;;;4.67;3.13;;;;;;;;;;5001709;28;20189;-75
2022/07/14 11:23:56;;;;;;;3.17;2.80;;;;;;;;;;5006291;28;20193;-75
2022/07/14 11:26:37;;;;;;;5.07;2.80;;;;;;;;;;4975995;28;20237;-75
2022/07/14 11:29:07;;;;;;;7.03;3.00;;;;;;;;;;5008082;28;20201;-75
2022/07/14 11:31:46;;;;;;;4.27;3.00;;;;;;;;;;5011718;28;20273;-76
2022/07/14 11:37:05;;;;;;;3.57;3.10;;;;;;;;;;4991741;28;20701;-76
2022/07/14 11:39:35;;;;;;;5.87;2.90;;;;;;;;;;4992318;28;20191;-76
2022/07/14 11:42:09;;;;;;;4.53;3.10;;;;;;;;;;5004366;28;20679;-76
2022/07/14 11:44:35;;;;;;;3.03;2.73;;;;;;;;;;5003368;28;20284;-76
2022/07/14 11:47:03;;;;;;;6.57;3.10;;;;;;;;;;5004071;28;20212;-76
2022/07/14 11:49:29;;;;;;;6.00;2.93;;;;;;;;;;5005568;28;20208;-76
2022/07/14 11:51:56;;;;;;;4.87;2.80;;;;;;;;;;5006883;28;20189;-76
2022/07/14 11:54:23;;;;;;;4.63;2.93;;;;;;;;;;5004496;28;20188;-76
2022/07/14 11:56:49;;;;;;;5.60;2.97;;;;;;;;;;4981047;28;20201;-75
2022/07/14 11:59:19;;;;;;;5.50;2.80;;;;;;;;;;5004548;28;20377;-76
2022/07/14 12:01:45;;;;;;;4.77;2.73;;;;;;;;;;5004046;28;20186;-76
2022/07/14 12:04:14;;;;;;;5.40;2.80;;;;;;;;;;5005200;28;20206;-76
2022/07/14 12:06:43;;;;;;;4.00;2.97;;;;;;;;;;5004345;28;20923;-76
2022/07/14 12:09:10;;;;;;;4.37;2.97;;;;;;;;;;4990272;28;20944;-75
2022/07/14 12:11:36;;;;;;;4.27;3.10;;;;;;;;;;5006275;28;20233;-74
2022/07/14 12:14:03;;;;;;;4.43;2.70;;;;;;;;;;5000598;28;20219;-77
2022/07/14 12:16:41;;;;;;;3.20;2.90;;;;;;;;;;5003770;28;20231;-74
2022/07/14 12:19:09;;;;;;;4.33;3.00;;;;;;;;;;5003983;28;20273;-74
2022/07/14 12:21:36;;;;;;;6.13;2.80;;;;;;;;;;5001962;28;20183;-74
2022/07/14 12:24:03;;;;;;;6.37;2.80;;;;;;;;;;4988829;28;20202;-73
2022/07/14 12:26:29;;;;;;;6.13;3.10;;;;;;;;;;4975391;28;20214;-75
2022/07/14 12:28:57;;;;;;;4.83;2.90;;;;;;;;;;5001281;28;20213;-73
2022/07/14 12:31:23;;;;;;;3.10;2.60;;;;;;;;;;4971987;28;20222;-77
2022/07/14 12:33:50;;;;;;;4.20;3.00;;;;;;;;;;4998252;28;20678;-73
2022/07/14 12:36:18;;;;;;;3.67;3.00;;;;;;;;;;5001390;28;20750;-72
2022/07/14 12:38:46;;;;;;;5.10;3.07;;;;;;;;;;4984539;28;20188;-72
2022/07/14 12:41:14;;;;;;;4.20;3.17;;;;;;;;;;4999788;28;20192;-73
2022/07/14 12:43:42;;;;;;;3.77;2.80;;;;;;;;;;4995830;28;20296;-72
2022/07/14 12:46:10;;;;;;;4.57;3.37;;;;;;;;;;4999417;28;20252;-72
2022/07/14 12:48:55;;;;;;;6.83;3.13;;;;;;;;;;4983725;28;20196;-73
2022/07/14 12:51:21;;;;;;;6.77;3.30;;;;;;;;;;5021613;23;20598;-75
2022/07/14 12:54:05;;;;;;;7.70;3.20;;;;;;;;;;4979991;28;20203;-73
2022/07/14 12:56:34;;;;;;;6.37;2.93;;;;;;;;;;4982779;28;20683;-73
2022/07/14 12:59:01;;;;;;;4.27;3.00;;;;;;;;;;4984957;28;20193;-74
2022/07/14 13:01:28;;;;;;;3.40;3.03;;;;;;;;;;5003544;28;20234;-74
2022/07/14 13:03:54;;;;;;;3.20;2.90;;;;;;;;;;4983002;28;20197;-74
2022/07/14 13:06:21;;;;;;;5.10;2.90;;;;;;;;;;5000548;28;20187;-74
2022/07/14 13:08:47;;;;;;;3.50;3.20;;;;;;;;;;5001182;28;20197;-74
2022/07/14 13:11:13;;;;;;;6.10;3.03;;;;;;;;;;5001014;28;20279;-73
2022/07/14 13:13:41;;;;;;;4.13;3.20;;;;;;;;;;5006047;28;20183;-74
2022/07/14 13:16:15;;;;;;;4.33;3.30;;;;;;;;;;4982770;28;20621;-73
2022/07/14 13:19:00;;;;;;;3.20;2.90;;;;;;;;;;4984847;28;20186;-75
2022/07/14 13:21:45;;;;;;;3.57;3.00;;;;;;;;;;5009256;28;20209;-74
2022/07/14 13:24:22;;;;;;;3.60;3.20;;;;;;;;;;5001334;28;20188;-75
2022/07/14 13:27:02;;;;;;;6.57;2.97;;;;;;;;;;4983981;28;20566;-73
2022/07/14 13:29:29;;;;;;;6.57;3.20;;;;;;;;;;4985047;28;20226;-73
2022/07/14 13:31:56;;;;;;;3.27;2.73;;;;;;;;;;5002257;28;20231;-73
2022/07/14 13:34:22;;;;;;;3.00;2.70;;;;;;;;;;4996502;28;20191;-73
2022/07/14 13:36:49;;;;;;;2.73;2.53;;;;;;;;;;5002360;28;20232;-73
2022/07/14 13:39:15;;;;;;;7.63;2.77;;;;;;;;;;4983439;28;20195;-73
2022/07/14 13:41:41;;;;;;;3.03;2.80;;;;;;;;;;4998035;28;20209;-73
2022/07/14 13:44:08;;;;;;;5.50;3.00;;;;;;;;;;5003409;28;22399;-73
2022/07/14 13:46:35;;;;;;;3.40;2.80;;;;;;;;;;4998538;28;20186;-73
2022/07/14 13:49:01;;;;;;;4.20;2.80;;;;;;;;;;4998457;28;20186;-73
2022/07/14 13:54:13;;;;;;;9.20;3.17;;;;;;;;;;5000179;28;20190;-73
2022/07/14 13:56:40;;;;;;;3.67;3.00;;;;;;;;;;5004312;28;20183;-73
2022/07/14 13:59:09;;;;;;;4.13;3.03;;;;;;;;;;5001739;28;20193;-73
2022/07/14 14:01:36;;;;;;;3.27;2.97;;;;;;;;;;5001300;28;20208;-73
2022/07/14 14:04:03;;;;;;;3.13;2.80;;;;;;;;;;5001609;28;20776;-73
2022/07/14 14:06:29;;;;;;;8.65;3.10;;;;;;;;;;5004169;28;20688;-73
2022/07/14 14:08:55;;;;;;;3.08;2.67;;;;;;;;;;5003910;28;20219;-72
2022/07/14 14:11:22;;;;;;;4.18;2.97;;;;;;;;;;5004315;28;20227;-73
2022/07/14 14:13:48;;;;;;;4.53;2.50;;;;;;;;;;5007775;28;20189;-73
2022/07/14 14:16:14;;;;;;;6.75;2.60;;;;;;;;;;5003292;28;20193;-73
2022/07/14 14:18:40;;;;;;;5.70;2.90;;;;;;;;;;5004633;28;20231;-73
2022/07/14 14:21:08;;;;;;;3.65;2.75;;;;;;;;;;4988146;28;20221;-73
2022/07/14 14:23:35;;;;;;;3.50;2.60;;;;;;;;;;5005451;28;20191;-73
2022/07/14 14:26:04;;;;;;;3.80;2.38;;;;;;;;;;5004009;28;20267;-77
2022/07/14 14:28:30;;;;;;;3.00;2.47;;;;;;;;;;5001883;28;22022;-76
2022/07/14 14:30:56;;;;;;;3.00;2.70;;;;;;;;;;4999068;28;20225;-72
2022/07/14 14:33:22;;;;;;;4.50;2.53;;;;;;;;;;5003681;28;20778;-75
2022/07/14 14:35:48;;;;;;;4.13;2.90;;;;;;;;;;5004665;28;20189;-77
2022/07/14 14:38:16;;;;;;;5.20;2.80;;;;;;;;;;5002409;28;20656;-75
2022/07/14 14:40:42;;;;;;;4.90;2.80;;;;;;;;;;5000396;28;20210;-73
2022/07/14 14:43:12;;;;;;;4.50;2.80;;;;;;;;;;5001233;28;21409;-75
2022/07/14 14:45:39;;;;;;;6.50;2.83;;;;;;;;;;4984993;28;20668;-74
2022/07/14 14:48:06;;;;;;;5.23;2.50;;;;;;;;;;5001867;28;20233;-72
2022/07/14 14:50:32;;;;;;;5.40;2.43;;;;;;;;;;5001351;28;20226;-72
2022/07/14 14:52:59;;;;;;;3.03;2.40;;;;;;;;;;4998648;28;20190;-73
2022/07/14 14:55:26;;;;;;;7.23;2.73;;;;;;;;;;4985397;28;20598;-74
2022/07/14 14:57:52;;;;;;;5.80;2.57;;;;;;;;;;5008043;28;20196;-74
2022/07/14 15:00:18;;;;;;;10.67;2.63;;;;;;;;;;5009904;28;20213;-74
2022/07/14 15:02:45;;;;;;;6.20;2.50;;;;;;;;;;4984185;28;20209;-73
2022/07/14 15:05:12;;;;;;;5.17;2.50;;;;;;;;;;5004722;28;20200;-74
2022/07/14 15:07:38;;;;;;;4.37;2.30;;;;;;;;;;5003656;28;20201;-74